createdAt,value
2022-10-11T00:00:29.603Z,17.80
2022-10-11T00:01:29.670Z,18.60
2022-10-11T00:02:29.551Z,20.80
2022-10-11T00:03:29.611Z,18.20
2022-10-11T00:04:29.533Z,19.80
2022-10-11T00:05:29.573Z,21.30
2022-10-11T00:06:29.527Z,23.00
2022-10-11T00:07:29.492Z,25.00
2022-10-11T00:08:29.472Z,20.30
2022-10-11T00:09:29.481Z,19.10
2022-10-11T00:10:29.447Z,17.10
2022-10-11T00:11:29.549Z,14.20
2022-10-11T00:12:29.436Z,19.10
2022-10-11T00:13:29.427Z,15.10
2022-10-11T00:14:29.401Z,17.10
2022-10-11T00:15:29.387Z,16.40
2022-10-11T00:16:29.363Z,22.80
2022-10-11T00:17:29.355Z,20.80
2022-10-11T00:18:29.339Z,19.40
2022-10-11T00:19:29.340Z,18.40
2022-10-11T00:20:29.307Z,21.30
2022-10-11T00:21:29.304Z,14.80
2022-10-11T00:22:29.276Z,18.70
2022-10-11T00:23:29.263Z,15.70
2022-10-11T00:24:29.275Z,19.30
2022-10-11T00:25:29.235Z,21.70
2022-10-11T00:26:29.225Z,14.80
2022-10-11T00:27:29.220Z,18.00
2022-10-11T00:28:29.289Z,13.90
2022-10-11T00:29:29.230Z,22.80
2022-10-11T00:30:29.187Z,17.80
2022-10-11T00:31:34.664Z,22.30
2022-10-11T00:32:29.152Z,18.10
2022-10-11T00:33:29.173Z,15.00
2022-10-11T00:34:29.243Z,16.80
2022-10-11T00:35:29.147Z,13.80
2022-10-11T00:38:14.492Z,14.90
2022-10-11T00:39:34.200Z,16.00
2022-10-11T00:40:13.080Z,20.10
2022-10-11T00:41:13.042Z,13.20
2022-10-11T00:42:18.529Z,18.20
2022-10-11T00:43:13.048Z,11.00
2022-10-11T00:45:35.182Z,9.70
2022-10-11T00:46:32.968Z,9.90
2022-10-11T00:47:56.709Z,19.30
2022-10-11T00:48:32.940Z,17.40
2022-10-11T00:49:32.936Z,19.70
2022-10-11T00:50:32.942Z,16.30
2022-10-11T00:51:32.935Z,19.40
2022-10-11T00:52:32.905Z,11.50
2022-10-11T00:53:32.882Z,10.30
2022-10-11T00:54:32.873Z,13.30
2022-10-11T00:55:32.861Z,11.20
2022-10-11T00:59:03.510Z,16.80
2022-10-11T01:00:23.824Z,17.00
2022-10-11T01:01:02.881Z,9.30
2022-10-11T01:02:03.034Z,12.90
2022-10-11T01:03:02.804Z,15.50
2022-10-11T01:04:02.800Z,12.10
2022-10-11T01:05:27.673Z,16.70
2022-10-11T01:06:03.195Z,12.20
2022-10-11T01:07:02.897Z,15.30
2022-10-11T01:08:23.733Z,17.20
2022-10-11T01:09:02.706Z,13.50
2022-10-11T01:10:02.711Z,13.20
2022-10-11T01:11:02.758Z,14.10
2022-10-11T01:12:02.663Z,12.00
2022-10-11T01:13:02.655Z,15.70
2022-10-11T01:14:02.691Z,14.00
2022-10-11T01:15:02.749Z,14.80
2022-10-11T01:16:03.089Z,13.10
2022-10-11T01:17:31.088Z,11.60
2022-10-11T01:18:02.582Z,12.30
2022-10-11T01:19:02.568Z,13.00
2022-10-11T01:20:02.552Z,12.70
2022-10-11T01:21:02.549Z,14.80
2022-10-11T01:22:02.523Z,15.50
2022-10-11T01:23:02.533Z,18.10
2022-10-11T01:24:07.455Z,12.20
2022-10-11T01:25:02.527Z,17.20
2022-10-11T01:26:02.844Z,11.60
2022-10-11T01:27:23.476Z,17.50
2022-10-11T01:28:02.499Z,14.80
2022-10-11T01:29:04.478Z,17.30
2022-10-11T01:30:23.513Z,13.00
2022-10-11T01:31:02.409Z,15.70
2022-10-11T01:32:02.391Z,13.40
2022-10-11T01:33:02.393Z,16.00
2022-10-11T01:34:02.356Z,13.20
2022-10-11T01:35:02.378Z,13.40
2022-10-11T01:36:02.858Z,16.20
2022-10-11T01:37:23.313Z,14.30
2022-10-11T01:38:02.332Z,12.80
2022-10-11T01:39:02.295Z,18.20
2022-10-11T01:40:02.282Z,13.50
2022-10-11T01:41:02.272Z,16.40
2022-10-11T01:42:23.401Z,17.50
2022-10-11T01:43:02.311Z,12.70
2022-10-11T01:44:02.241Z,14.30
2022-10-11T01:45:02.221Z,14.60
2022-10-11T01:46:02.707Z,18.60
2022-10-11T01:47:03.083Z,14.30
2022-10-11T01:48:02.231Z,16.40
2022-10-11T01:49:02.165Z,16.10
2022-10-11T01:50:02.161Z,13.80
2022-10-11T01:51:02.485Z,14.30
2022-10-11T01:52:02.144Z,13.20
2022-10-11T01:53:02.131Z,13.10
2022-10-11T01:54:02.125Z,20.90
2022-10-11T01:55:09.660Z,22.50
2022-10-11T01:56:02.496Z,17.40
2022-10-11T01:57:02.055Z,16.30
2022-10-11T01:58:02.032Z,16.50
2022-10-11T01:59:02.064Z,22.10
2022-10-11T02:00:02.012Z,18.90
2022-10-11T02:01:02.080Z,13.80
2022-10-11T02:02:01.977Z,16.80
2022-10-11T02:03:02.003Z,18.50
2022-10-11T02:04:01.982Z,12.50
2022-10-11T02:05:01.975Z,17.70
2022-10-11T02:06:02.206Z,11.20
2022-10-11T02:07:01.913Z,11.70
2022-10-11T02:08:01.898Z,13.60
2022-10-11T02:09:05.712Z,13.10
2022-10-11T02:10:01.888Z,17.30
2022-10-11T02:11:01.876Z,12.50
2022-10-11T02:12:01.846Z,13.80
2022-10-11T02:13:01.838Z,14.20
2022-10-11T02:14:01.943Z,21.60
2022-10-11T02:15:01.830Z,13.40
2022-10-11T02:16:02.242Z,12.60
2022-10-11T02:17:01.833Z,14.80
2022-10-11T02:18:01.766Z,13.20
2022-10-11T02:19:01.752Z,16.10
2022-10-11T02:20:01.731Z,12.90
2022-10-11T02:21:01.729Z,15.90
2022-10-11T02:22:01.710Z,15.80
2022-10-11T02:23:01.699Z,10.20
2022-10-11T02:24:01.698Z,10.90
2022-10-11T02:25:01.671Z,14.90
2022-10-11T02:26:02.005Z,13.30
2022-10-11T02:27:01.642Z,11.60
2022-10-11T02:28:01.622Z,14.10
2022-10-11T02:29:01.644Z,14.70
2022-10-11T02:30:01.658Z,14.20
2022-10-11T02:31:01.656Z,14.20
2022-10-11T02:32:01.576Z,12.30
2022-10-11T02:33:01.566Z,13.50
2022-10-11T02:34:01.569Z,14.00
2022-10-11T02:35:01.532Z,16.10
2022-10-11T02:36:01.921Z,13.50
2022-10-11T02:37:01.507Z,14.50
2022-10-11T02:38:01.499Z,17.80
2022-10-11T02:39:01.497Z,14.60
2022-10-11T02:40:01.478Z,21.20
2022-10-11T02:41:01.454Z,26.00
2022-10-11T02:42:01.438Z,16.10
2022-10-11T02:43:01.449Z,19.00
2022-10-11T02:44:01.425Z,22.40
2022-10-11T02:45:01.427Z,23.30
2022-10-11T02:46:01.753Z,21.00
2022-10-11T02:47:01.378Z,25.60
2022-10-11T02:48:01.364Z,20.30
2022-10-11T02:49:01.349Z,18.80
2022-10-11T02:50:01.321Z,21.20
2022-10-11T02:51:01.341Z,22.50
2022-10-11T02:52:01.297Z,23.90
2022-10-11T02:53:01.327Z,26.50
2022-10-11T02:54:01.292Z,23.20
2022-10-11T02:55:01.270Z,26.60
2022-10-11T02:56:01.469Z,23.30
2022-10-11T02:57:01.237Z,21.60
2022-10-11T02:58:01.214Z,25.70
2022-10-11T02:59:01.235Z,17.50
2022-10-11T03:00:01.190Z,21.80
2022-10-11T03:01:01.174Z,25.00
2022-10-11T03:02:01.293Z,26.00
2022-10-11T03:03:01.151Z,20.90
2022-10-11T03:04:01.180Z,25.10
2022-10-11T03:05:01.120Z,16.50
2022-10-11T03:06:01.493Z,19.70
2022-10-11T03:07:01.099Z,24.00
2022-10-11T03:08:01.082Z,19.70
2022-10-11T03:09:01.087Z,22.80
2022-10-11T03:10:01.060Z,23.20
2022-10-11T03:11:01.055Z,24.40
2022-10-11T03:12:01.022Z,24.80
2022-10-11T03:13:01.019Z,22.20
2022-10-11T03:14:01.027Z,16.70
2022-10-11T03:15:01.027Z,16.50
2022-10-11T03:16:03.599Z,22.80
2022-10-11T03:17:23.756Z,26.60
2022-10-11T03:18:00.932Z,21.40
2022-10-11T03:19:00.941Z,21.40
2022-10-11T03:20:00.931Z,19.00
2022-10-11T03:21:00.901Z,19.20
2022-10-11T03:22:00.896Z,22.10
2022-10-11T03:23:00.886Z,24.50
2022-10-11T03:24:00.866Z,23.00
2022-10-11T03:25:04.068Z,21.30
2022-10-11T03:26:00.843Z,22.10
2022-10-11T03:27:00.843Z,16.10
2022-10-11T03:28:00.825Z,16.40
2022-10-11T03:29:00.789Z,22.20
2022-10-11T03:30:00.883Z,21.30
2022-10-11T03:31:00.768Z,17.80
2022-10-11T03:32:00.743Z,19.20
2022-10-11T03:33:00.760Z,23.30
2022-10-11T03:34:00.716Z,18.50
2022-10-11T03:35:00.730Z,17.10
2022-10-11T03:36:00.690Z,18.70
2022-10-11T03:37:00.691Z,22.40
2022-10-11T03:38:00.680Z,18.40
2022-10-11T03:39:00.667Z,20.10
2022-10-11T03:40:00.656Z,14.40
2022-10-11T03:41:00.634Z,19.80
2022-10-11T03:42:00.615Z,21.70
2022-10-11T03:43:00.612Z,16.40
2022-10-11T03:44:00.596Z,15.60
2022-10-11T03:45:00.574Z,13.60
2022-10-11T03:46:00.572Z,14.60
2022-10-11T03:47:00.563Z,21.30
2022-10-11T03:47:59.534Z,38.00
2022-10-11T03:49:00.532Z,39.30
2022-10-11T03:50:00.508Z,30.80
2022-10-11T03:51:00.520Z,45.80
2022-10-11T03:52:00.489Z,39.70
2022-10-11T03:53:00.490Z,39.40
2022-10-11T03:54:00.478Z,44.00
2022-10-11T03:55:00.497Z,41.80
2022-10-11T03:56:04.609Z,49.20
2022-10-11T03:57:00.577Z,33.50
2022-10-11T03:58:00.400Z,39.30
2022-10-11T03:59:00.401Z,31.10
2022-10-11T04:00:00.399Z,48.60
2022-10-11T04:01:00.382Z,32.90
2022-10-11T04:02:00.501Z,37.70
2022-10-11T04:03:00.361Z,29.50
2022-10-11T04:04:00.318Z,38.90
2022-10-11T04:05:00.327Z,27.20
2022-10-11T04:06:00.294Z,29.90
2022-10-11T04:07:00.280Z,28.90
2022-10-11T04:08:00.267Z,24.00
2022-10-11T04:09:00.252Z,32.20
2022-10-11T04:10:00.304Z,28.40
2022-10-11T04:11:00.231Z,28.60
2022-10-11T04:12:00.195Z,20.40
2022-10-11T04:13:00.201Z,22.90
2022-10-11T04:14:00.181Z,21.20
2022-10-11T04:15:00.159Z,24.00
2022-10-11T04:16:00.200Z,29.60
2022-10-11T04:17:00.587Z,19.20
2022-10-11T04:18:00.128Z,20.90
2022-10-11T04:19:00.165Z,30.70
2022-10-11T04:20:00.091Z,21.90
2022-10-11T04:21:00.092Z,25.10
2022-10-11T04:22:00.092Z,22.30
2022-10-11T04:23:00.095Z,31.30
2022-10-11T04:24:00.069Z,18.80
2022-10-11T04:25:00.073Z,22.30
2022-10-11T04:26:00.013Z,24.00
2022-10-11T04:27:00.021Z,26.50
2022-10-11T04:27:59.997Z,24.80
2022-10-11T04:29:00.046Z,29.20
2022-10-11T04:29:59.960Z,25.00
2022-10-11T04:30:59.979Z,28.20
2022-10-11T04:31:59.973Z,25.10
2022-10-11T04:32:59.955Z,22.70
2022-10-11T04:33:59.916Z,20.90
2022-10-11T04:34:59.917Z,22.90
2022-10-11T04:35:59.921Z,20.00
2022-10-11T04:36:59.872Z,23.20
2022-10-11T04:37:59.866Z,21.80
2022-10-11T04:38:59.852Z,23.00
2022-10-11T04:39:59.871Z,23.00
2022-10-11T04:40:59.831Z,22.60
2022-10-11T04:41:59.813Z,21.20
2022-10-11T04:42:59.802Z,23.60
2022-10-11T04:43:59.773Z,20.20
2022-10-11T04:44:59.769Z,24.40
2022-10-11T04:45:59.764Z,18.20
2022-10-11T04:46:59.750Z,25.40
2022-10-11T04:47:59.710Z,23.30
2022-10-11T04:48:59.851Z,19.30
2022-10-11T04:49:59.721Z,18.90
2022-10-11T04:50:59.712Z,21.90
2022-10-11T04:51:59.684Z,23.00
2022-10-11T04:52:59.663Z,19.80
2022-10-11T04:53:59.706Z,19.30
2022-10-11T04:54:59.617Z,26.50
2022-10-11T04:55:59.621Z,23.70
2022-10-11T04:56:59.660Z,23.20
2022-10-11T04:57:59.604Z,27.20
2022-10-11T04:58:59.587Z,23.80
2022-10-11T04:59:59.568Z,22.90
2022-10-11T05:00:59.572Z,24.20
2022-10-11T05:01:59.593Z,24.70
2022-10-11T05:02:59.582Z,18.00
2022-10-11T05:03:59.509Z,23.80
2022-10-11T05:04:59.550Z,22.80
2022-10-11T05:06:04.511Z,19.20
2022-10-11T05:06:59.481Z,16.90
2022-10-11T05:07:59.447Z,20.70
2022-10-11T05:08:59.466Z,21.50
2022-10-11T05:09:59.420Z,23.10
2022-10-11T05:10:59.431Z,16.40
2022-10-11T05:11:59.430Z,16.80
2022-10-11T05:12:59.381Z,17.60
2022-10-11T05:13:59.413Z,15.90
2022-10-11T05:14:59.353Z,17.70
2022-10-11T05:15:59.350Z,17.30
2022-10-11T05:16:59.363Z,20.60
2022-10-11T05:17:59.304Z,15.90
2022-10-11T05:18:59.292Z,16.90
2022-10-11T05:19:59.280Z,20.00
2022-10-11T05:20:59.276Z,25.70
2022-10-11T05:21:59.260Z,17.10
2022-10-11T05:22:59.229Z,20.40
2022-10-11T05:23:59.242Z,18.90
2022-10-11T05:24:59.207Z,15.30
2022-10-11T05:25:59.212Z,18.20
2022-10-11T05:27:03.147Z,21.20
2022-10-11T05:27:59.183Z,21.00
2022-10-11T05:28:59.232Z,22.60
2022-10-11T05:29:59.142Z,18.10
2022-10-11T05:30:59.162Z,21.50
2022-10-11T05:31:59.128Z,24.40
2022-10-11T05:32:59.094Z,20.30
2022-10-11T05:33:59.084Z,24.10
2022-10-11T05:34:59.066Z,24.60
2022-10-11T05:35:59.067Z,24.40
2022-10-11T05:36:59.052Z,26.40
2022-10-11T05:37:59.038Z,24.00
2022-10-11T05:38:59.012Z,20.20
2022-10-11T05:39:59.008Z,20.80
2022-10-11T05:40:59.042Z,22.90
2022-10-11T05:41:59.010Z,19.30
2022-10-11T05:42:58.981Z,26.90
2022-10-11T05:43:59.039Z,27.70
2022-10-11T05:44:59.145Z,31.70
2022-10-11T05:45:59.010Z,33.40
2022-10-11T05:46:58.951Z,31.30
2022-10-11T05:47:58.903Z,21.80
2022-10-11T05:48:58.910Z,27.70
2022-10-11T05:49:58.997Z,27.70
2022-10-11T05:50:59.015Z,20.00
2022-10-11T05:51:58.839Z,19.70
2022-10-11T05:52:58.880Z,22.90
2022-10-11T05:53:58.870Z,21.60
2022-10-11T05:54:58.851Z,18.10
2022-10-11T05:55:58.826Z,28.70
2022-10-11T05:56:58.782Z,17.60
2022-10-11T05:57:58.761Z,22.20
2022-10-11T05:59:02.396Z,23.70
2022-10-11T05:59:58.769Z,22.50
2022-10-11T06:00:58.791Z,21.80
2022-10-11T06:01:58.706Z,27.20
2022-10-11T06:02:58.704Z,24.00
2022-10-11T06:03:58.702Z,22.00
2022-10-11T06:04:58.659Z,23.80
2022-10-11T06:05:58.666Z,20.80
2022-10-11T06:06:58.633Z,19.00
2022-10-11T06:07:58.623Z,22.90
2022-10-11T06:08:58.633Z,26.40
2022-10-11T06:09:58.658Z,27.40
2022-10-11T06:10:58.598Z,23.50
2022-10-11T06:11:58.618Z,20.60
2022-10-11T06:12:58.557Z,18.00
2022-10-11T06:13:58.548Z,23.70
2022-10-11T06:14:58.540Z,21.90
2022-10-11T06:15:58.530Z,22.30
2022-10-11T06:16:58.565Z,15.80
2022-10-11T06:17:58.481Z,16.80
2022-10-11T06:18:58.511Z,18.70
2022-10-11T06:19:58.471Z,17.20
2022-10-11T06:20:58.480Z,17.10
2022-10-11T06:21:58.465Z,20.60
2022-10-11T06:22:58.418Z,17.60
2022-10-11T06:24:01.314Z,19.90
2022-10-11T06:24:58.395Z,16.60
2022-10-11T06:25:58.382Z,21.80
2022-10-11T06:26:58.374Z,18.10
2022-10-11T06:27:58.357Z,16.00
2022-10-11T06:28:58.428Z,20.90
2022-10-11T06:29:58.322Z,17.80
2022-10-11T06:30:58.329Z,21.20
2022-10-11T06:31:58.310Z,19.80
2022-10-11T06:33:03.767Z,16.80
2022-10-11T06:33:58.471Z,26.90
2022-10-11T06:34:58.268Z,30.50
2022-10-11T06:35:58.259Z,28.40
2022-10-11T06:36:58.247Z,32.50
2022-10-11T06:37:58.264Z,27.40
2022-10-11T06:38:58.197Z,25.60
2022-10-11T06:39:58.193Z,32.40
2022-10-11T06:40:58.167Z,32.00
2022-10-11T06:41:58.190Z,26.80
2022-10-11T06:42:58.159Z,27.30
2022-10-11T06:43:58.159Z,31.60
2022-10-11T06:44:58.126Z,25.80
2022-10-11T06:45:58.115Z,32.10
2022-10-11T06:46:58.092Z,45.80
2022-10-11T06:47:58.104Z,38.60
2022-10-11T06:48:58.057Z,55.80
2022-10-11T06:49:58.059Z,46.10
2022-10-11T06:51:00.465Z,32.60
2022-10-11T06:51:58.073Z,35.60
2022-10-11T06:52:58.016Z,43.00
2022-10-11T06:53:58.040Z,37.40
2022-10-11T06:54:58.014Z,34.40
2022-10-11T06:55:57.997Z,33.10
2022-10-11T06:56:58.002Z,35.80
2022-10-11T06:57:58.265Z,36.10
2022-10-11T06:58:57.919Z,37.30
2022-10-11T06:59:57.959Z,32.10
2022-10-11T07:00:57.948Z,30.90
2022-10-11T07:01:57.894Z,29.50
2022-10-11T07:02:57.851Z,29.40
2022-10-11T07:03:57.912Z,29.50
2022-10-11T07:04:57.853Z,30.10
2022-10-11T07:06:01.539Z,27.50
2022-10-11T07:06:57.810Z,29.00
2022-10-11T07:07:57.834Z,30.00
2022-10-11T07:08:57.784Z,25.40
2022-10-11T07:09:57.785Z,28.90
2022-10-11T07:10:57.765Z,26.90
2022-10-11T07:11:57.750Z,29.10
2022-10-11T07:12:57.757Z,27.90
2022-10-11T07:13:57.709Z,29.40
2022-10-11T07:14:58.143Z,27.50
2022-10-11T07:15:57.691Z,28.60
2022-10-11T07:16:57.746Z,28.10
2022-10-11T07:17:57.671Z,29.70
2022-10-11T07:19:00.538Z,25.60
2022-10-11T07:19:57.652Z,26.40
2022-10-11T07:20:57.619Z,26.60
2022-10-11T07:21:57.616Z,27.10
2022-10-11T07:22:57.578Z,29.40
2022-10-11T07:23:57.580Z,25.50
2022-10-11T07:24:57.550Z,32.60
2022-10-11T07:25:57.558Z,27.70
2022-10-11T07:26:57.572Z,29.00
2022-10-11T07:27:57.516Z,36.20
2022-10-11T07:28:57.578Z,26.90
2022-10-11T07:29:57.493Z,28.80
2022-10-11T07:30:57.489Z,34.00
2022-10-11T07:31:57.472Z,33.80
2022-10-11T07:32:57.514Z,31.30
2022-10-11T07:33:57.437Z,32.70
2022-10-11T07:34:57.440Z,31.70
2022-10-11T07:35:57.405Z,33.30
2022-10-11T07:36:57.387Z,30.70
2022-10-11T07:37:57.638Z,31.90
2022-10-11T07:38:57.367Z,34.10
2022-10-11T07:39:57.366Z,39.90
2022-10-11T07:40:57.441Z,35.40
2022-10-11T07:41:57.369Z,39.20
2022-10-11T07:42:57.338Z,38.30
2022-10-11T07:43:57.343Z,39.00
2022-10-11T07:44:57.287Z,42.40
2022-10-11T07:47:13.350Z,30.40
2022-10-11T07:48:14.269Z,34.60
2022-10-11T07:49:14.230Z,40.00
2022-10-11T07:50:14.245Z,37.50
2022-10-11T07:51:14.249Z,37.20
2022-10-11T07:52:15.256Z,36.50
2022-10-11T07:53:14.202Z,44.50
2022-10-11T07:54:14.196Z,49.30
2022-10-11T07:55:14.160Z,43.80
2022-10-11T07:56:19.380Z,40.70
2022-10-11T07:57:14.189Z,42.40
2022-10-11T07:58:14.214Z,51.10
2022-10-11T07:59:14.096Z,50.60
2022-10-11T08:05:15.982Z,47.20
2022-10-11T08:06:16.828Z,54.50
2022-10-11T08:07:16.821Z,50.60
2022-10-11T08:08:16.828Z,54.40
2022-10-11T08:09:16.803Z,48.90
2022-10-11T08:10:16.868Z,41.10
2022-10-11T08:11:16.753Z,56.80
2022-10-11T08:12:16.748Z,45.00
2022-10-11T08:13:16.944Z,51.40
2022-10-11T08:14:16.726Z,46.80
2022-10-11T08:15:16.707Z,44.40
2022-10-11T08:16:16.716Z,52.40
2022-10-11T08:17:16.832Z,49.70
2022-10-11T08:18:16.686Z,48.30
2022-10-11T08:19:16.698Z,43.60
2022-10-11T08:20:16.664Z,44.20
2022-10-11T08:21:16.922Z,51.90
2022-10-11T08:22:16.630Z,50.80
2022-10-11T08:23:16.645Z,47.60
2022-10-11T08:24:16.606Z,47.80
2022-10-11T08:25:16.599Z,46.20
2022-10-11T08:26:16.580Z,48.10
2022-10-11T08:27:15.582Z,39.50
2022-10-11T08:28:16.583Z,41.80
2022-10-11T08:29:16.522Z,49.60
2022-10-11T08:30:16.531Z,39.60
2022-10-11T08:31:16.558Z,44.10
2022-10-11T08:32:16.505Z,38.60
2022-10-11T08:33:16.521Z,32.20
2022-10-11T08:34:16.456Z,31.40
2022-10-11T08:35:16.444Z,29.60
2022-10-11T08:36:16.489Z,31.60
2022-10-11T08:37:16.417Z,38.10
2022-10-11T08:38:16.630Z,30.90
2022-10-11T08:39:16.404Z,26.30
2022-10-11T08:40:16.411Z,32.30
2022-10-11T08:41:16.649Z,29.40
2022-10-11T08:42:16.371Z,23.70
2022-10-11T08:43:16.538Z,26.20
2022-10-11T08:44:16.668Z,27.20
2022-10-11T08:45:16.310Z,25.00
2022-10-11T08:46:17.281Z,21.60
2022-10-11T08:47:16.306Z,19.90
2022-10-11T08:48:16.311Z,18.80
2022-10-11T08:49:16.249Z,21.00
2022-10-11T08:50:16.269Z,22.00
2022-10-11T08:51:16.239Z,18.40
2022-10-11T08:52:16.290Z,21.20
2022-10-11T08:53:16.276Z,14.70
2022-10-11T08:54:16.210Z,16.00
2022-10-11T08:55:16.236Z,10.50
2022-10-11T08:56:16.363Z,13.20
2022-10-11T08:57:16.190Z,18.00
2022-10-11T08:58:16.182Z,15.00
2022-10-11T08:59:16.175Z,16.50
2022-10-11T09:00:16.114Z,14.60
2022-10-11T09:01:16.230Z,15.40
2022-10-11T09:02:18.453Z,15.20
2022-10-11T09:03:16.112Z,18.70
2022-10-11T09:04:16.050Z,16.90
2022-10-11T09:05:16.042Z,12.60
2022-10-11T09:06:16.060Z,13.10
2022-10-11T09:07:16.009Z,15.30
2022-10-11T09:08:16.754Z,14.40
2022-10-11T09:09:16.034Z,16.30
2022-10-11T09:10:15.963Z,16.90
2022-10-11T09:11:15.958Z,13.30
2022-10-11T09:12:15.951Z,16.10
2022-10-11T09:13:15.922Z,14.20
2022-10-11T09:14:15.916Z,12.30
2022-10-11T09:15:15.907Z,11.30
2022-10-11T09:16:15.952Z,13.70
2022-10-11T09:17:15.874Z,17.80
2022-10-11T09:21:45.815Z,18.90
2022-10-11T09:22:46.745Z,16.70
2022-10-11T09:23:46.727Z,13.00
2022-10-11T09:24:49.060Z,17.20
2022-10-11T09:25:46.682Z,15.20
2022-10-11T09:26:46.689Z,17.40
2022-10-11T09:28:03.469Z,13.00
2022-10-11T09:28:46.775Z,14.70
2022-10-11T09:29:46.628Z,15.50
2022-10-11T09:30:46.615Z,15.70
2022-10-11T09:31:46.641Z,15.60
2022-10-11T09:32:46.599Z,18.00
2022-10-11T09:33:47.592Z,17.30
2022-10-11T09:34:46.613Z,13.10
2022-10-11T09:37:15.903Z,15.70
2022-10-11T09:38:14.280Z,16.50
2022-10-11T09:39:35.700Z,21.20
2022-10-11T09:40:14.296Z,12.70
2022-10-11T09:41:14.263Z,14.90
2022-10-11T09:42:14.251Z,14.70
2022-10-11T09:43:14.212Z,13.10
2022-10-11T09:44:14.239Z,12.50
2022-10-11T09:45:14.232Z,16.60
2022-10-11T09:46:14.191Z,12.70
2022-10-11T09:47:14.284Z,18.70
2022-10-11T09:48:14.167Z,13.20
2022-10-11T09:49:14.338Z,13.90
2022-10-11T09:54:39.057Z,21.50
2022-10-11T09:55:15.365Z,17.10
2022-10-11T09:56:12.599Z,17.00
2022-10-11T09:57:12.721Z,14.10
2022-10-11T09:58:12.525Z,15.80
2022-10-11T09:59:12.597Z,13.30
2022-10-11T10:00:12.682Z,13.70
2022-10-11T10:01:15.641Z,14.20
2022-10-11T10:02:12.578Z,14.20
2022-10-11T10:03:12.500Z,12.20
2022-10-11T10:04:12.522Z,13.30
2022-10-11T10:05:12.439Z,20.30
2022-10-11T10:06:12.458Z,13.60
2022-10-11T10:07:31.975Z,11.80
2022-10-11T10:08:12.373Z,18.10
2022-10-11T10:09:12.398Z,15.90
2022-10-11T10:10:12.375Z,10.30
2022-10-11T10:11:12.343Z,13.90
2022-10-11T10:12:12.804Z,11.70
2022-10-11T10:13:12.311Z,10.20
2022-10-11T10:14:12.316Z,16.30
2022-10-11T10:15:12.286Z,14.00
2022-10-11T10:16:12.284Z,15.50
2022-10-11T10:17:12.268Z,14.20
2022-10-11T10:18:12.277Z,12.30
2022-10-11T10:19:12.251Z,14.60
2022-10-11T10:20:12.208Z,11.70
2022-10-11T10:21:14.382Z,11.20
2022-10-11T10:22:12.257Z,10.30
2022-10-11T10:23:12.190Z,12.00
2022-10-11T10:24:33.208Z,15.00
2022-10-11T10:25:13.462Z,9.40
2022-10-11T10:26:12.154Z,10.20
2022-10-11T10:27:12.970Z,10.00
2022-10-11T10:28:12.180Z,16.40
2022-10-11T10:30:24.453Z,13.60
2022-10-11T10:31:25.449Z,14.90
2022-10-11T10:32:48.216Z,20.40
2022-10-11T10:33:28.538Z,13.90
2022-10-11T10:34:26.098Z,19.70
2022-10-11T10:35:25.449Z,13.20
2022-10-11T10:36:25.407Z,12.00
2022-10-11T10:37:25.469Z,15.70
2022-10-11T10:38:26.941Z,13.90
2022-10-11T10:39:46.554Z,12.20
2022-10-11T10:40:25.332Z,8.80
2022-10-11T10:41:25.307Z,13.20
2022-10-11T10:42:25.328Z,12.90
2022-10-11T10:43:25.293Z,17.40
2022-10-11T10:44:25.281Z,10.60
2022-10-11T10:45:25.993Z,12.90
2022-10-11T10:46:25.235Z,6.10
2022-10-11T10:47:25.278Z,9.40
2022-10-11T10:48:25.209Z,13.10
2022-10-11T10:50:25.209Z,19.60
2022-10-11T10:51:25.194Z,15.20
2022-10-11T10:52:25.168Z,12.20
2022-10-11T10:53:25.162Z,11.80
2022-10-11T10:54:25.129Z,13.20
2022-10-11T10:55:46.185Z,8.70
2022-10-11T10:56:25.101Z,15.00
2022-10-11T10:57:25.157Z,10.00
2022-10-11T10:58:25.081Z,12.90
2022-10-11T10:59:25.069Z,14.20
2022-10-11T11:00:25.045Z,12.60
2022-10-11T11:01:25.138Z,12.80
2022-10-11T11:02:40.207Z,8.30
2022-10-11T11:03:25.028Z,11.00
2022-10-11T11:04:24.985Z,15.10
2022-10-11T11:05:24.994Z,8.90
2022-10-11T11:06:24.990Z,11.90
2022-10-11T11:07:24.973Z,19.50
2022-10-11T11:08:24.969Z,17.90
2022-10-11T11:09:24.925Z,12.50
2022-10-11T11:10:24.931Z,8.80
2022-10-11T11:11:24.909Z,8.10
2022-10-11T11:12:24.895Z,13.80
2022-10-11T11:13:24.898Z,9.20
2022-10-11T11:14:24.904Z,11.90
2022-10-11T11:15:32.100Z,12.80
2022-10-11T11:16:24.850Z,7.00
2022-10-11T11:17:23.935Z,9.20
2022-10-11T11:18:24.821Z,11.20
2022-10-11T11:19:24.792Z,11.20
2022-10-11T11:20:24.782Z,11.70
2022-10-11T11:21:24.789Z,9.80
2022-10-11T11:22:27.097Z,11.30
2022-10-11T11:23:24.740Z,8.20
2022-10-11T11:24:24.741Z,10.90
2022-10-11T11:25:24.724Z,10.10
2022-10-11T11:26:24.719Z,13.60
2022-10-11T11:27:24.691Z,15.00
2022-10-11T11:28:24.712Z,10.90
2022-10-11T11:29:24.697Z,10.90
2022-10-11T11:30:24.646Z,11.60
2022-10-11T11:31:24.674Z,11.00
2022-10-11T11:32:24.621Z,10.50
2022-10-11T11:33:24.623Z,7.30
2022-10-11T11:34:24.695Z,9.60
2022-10-11T11:35:25.061Z,11.20
2022-10-11T11:36:24.608Z,9.40
2022-10-11T11:37:24.584Z,7.20
2022-10-11T11:38:28.649Z,8.10
2022-10-11T11:39:24.571Z,9.20
2022-10-11T11:40:24.994Z,9.00
2022-10-11T11:41:24.510Z,8.70
2022-10-11T11:42:24.526Z,9.20
2022-10-11T11:43:24.657Z,10.20
2022-10-11T11:44:27.457Z,9.90
2022-10-11T11:45:24.487Z,7.30
2022-10-11T11:46:24.433Z,7.30
2022-10-11T11:47:24.428Z,6.60
2022-10-11T11:48:24.424Z,11.10
2022-10-11T11:49:24.411Z,6.60
2022-10-11T11:50:24.433Z,10.60
2022-10-11T11:51:26.576Z,9.80
2022-10-11T11:52:24.389Z,9.00
2022-10-11T11:53:24.351Z,9.40
2022-10-11T11:54:24.336Z,8.30
2022-10-11T11:55:24.355Z,10.30
2022-10-11T11:56:24.313Z,5.90
2022-10-11T11:57:42.950Z,10.30
2022-10-11T11:58:24.302Z,8.40
2022-10-11T11:59:24.286Z,11.90
2022-10-11T12:00:24.258Z,8.00
2022-10-11T12:02:40.123Z,9.10
2022-10-11T12:03:41.901Z,11.50
2022-10-11T12:05:53.823Z,8.30
2022-10-11T12:07:15.059Z,8.10
2022-10-11T12:13:01.561Z,9.90
2022-10-11T12:16:41.555Z,9.90
2022-10-11T12:18:05.429Z,10.70
2022-10-11T12:18:42.800Z,10.10
2022-10-11T12:19:42.555Z,10.80
2022-10-11T12:20:42.554Z,7.60
2022-10-11T12:22:04.580Z,8.60
2022-10-11T12:22:42.478Z,9.90
2022-10-11T12:23:42.474Z,8.30
2022-10-11T12:26:24.134Z,9.10
2022-10-11T12:27:06.638Z,12.10
2022-10-11T12:28:06.641Z,9.80
2022-10-11T12:30:52.536Z,10.50
2022-10-11T12:31:53.560Z,9.90
2022-10-11T12:32:53.520Z,11.20
2022-10-11T12:33:53.491Z,12.50
2022-10-11T12:42:56.511Z,9.50
2022-10-11T12:44:18.551Z,5.20
2022-10-11T12:44:57.478Z,8.70
2022-10-11T12:45:57.469Z,5.90
2022-10-11T12:46:57.462Z,6.30
2022-10-11T12:47:57.455Z,6.80
2022-10-11T12:48:57.462Z,7.60
2022-10-11T12:49:56.375Z,9.40
2022-10-11T12:51:02.162Z,12.50
2022-10-11T12:51:57.384Z,8.30
2022-10-11T12:52:57.374Z,7.00
2022-10-11T12:54:21.612Z,7.20
2022-10-11T12:54:57.325Z,8.50
2022-10-11T12:55:57.345Z,7.50
2022-10-11T12:56:57.292Z,9.40
2022-10-11T12:57:57.310Z,10.10
2022-10-11T12:58:57.309Z,4.30
2022-10-11T13:01:10.130Z,8.60
2022-10-11T13:06:24.767Z,9.30
2022-10-11T13:09:54.722Z,10.60
2022-10-11T13:10:55.728Z,10.30
2022-10-11T13:11:55.740Z,8.20
2022-10-11T13:12:55.746Z,10.20
2022-10-11T13:13:55.675Z,9.50
2022-10-11T13:14:55.688Z,6.00
2022-10-11T13:15:55.703Z,10.70
2022-10-11T13:16:55.711Z,11.20
2022-10-11T13:17:55.657Z,7.90
2022-10-11T13:18:57.402Z,7.60
2022-10-11T13:19:55.633Z,9.00
2022-10-11T13:20:55.600Z,9.60
2022-10-11T13:21:55.577Z,9.40
2022-10-11T13:22:55.576Z,7.90
2022-10-11T13:23:55.729Z,6.20
2022-10-11T13:24:55.529Z,8.60
2022-10-11T13:25:55.524Z,10.10
2022-10-11T13:26:55.509Z,9.70
2022-10-11T13:27:55.494Z,7.70
2022-10-11T13:28:55.530Z,7.70
2022-10-11T13:29:55.462Z,9.70
2022-10-11T13:30:55.485Z,7.00
2022-10-11T13:31:55.427Z,10.10
2022-10-11T13:32:55.423Z,9.40
2022-10-11T13:33:55.417Z,8.60
2022-10-11T13:35:55.401Z,7.20
2022-10-11T13:36:55.404Z,9.20
2022-10-11T13:37:55.377Z,8.40
2022-10-11T13:38:55.408Z,6.70
2022-10-11T13:39:55.372Z,6.80
2022-10-11T13:40:55.325Z,5.90
2022-10-11T13:41:55.353Z,6.60
2022-10-11T13:42:55.334Z,11.00
2022-10-11T13:43:55.298Z,8.50
2022-10-11T13:44:55.273Z,4.70
2022-10-11T13:45:55.228Z,8.20
2022-10-11T13:46:55.307Z,8.70
2022-10-11T13:47:55.210Z,9.50
2022-10-11T13:48:55.236Z,10.20